Time;durP1;ratioP1;P1;durP2;ratioP2;P2;SDS_P1;SDS_P2;PMS_P1;PMS_P2;Temp;Humidity;BMP_temperature;BMP_pressure;BME280_temperature;BME280_humidity;BME280_pressure;Samples;Min_cycle;Max_cycle;Signal;HPM_P1;HPM_P2
2023/02/28 00:00:12;;;;;;;8.23;5.05;;;;;;;9.54;64.02;102972.16;5100321;28;20032;-50
2023/02/28 00:02:38;;;;;;;7.93;4.00;;;;;;;9.76;64.06;102978.28;5102299;28;20032;-48
2023/02/28 00:05:05;;;;;;;6.70;3.72;;;;;;;9.69;64.53;102966.44;5095674;28;20032;-51
2023/02/28 00:07:31;;;;;;;8.77;3.80;;;;;;;9.64;64.43;102969.53;5096887;28;20027;-47
2023/02/28 00:09:57;;;;;;;7.05;3.40;;;;;;;9.81;64.40;102965.34;5099017;28;20083;-49
2023/02/28 00:12:23;;;;;;;7.95;4.07;;;;;;;9.80;64.42;102973.47;5097714;28;20066;-48
2023/02/28 00:14:49;;;;;;;5.30;3.13;;;;;;;9.81;64.35;102969.84;5105130;28;20032;-51
2023/02/28 00:17:16;;;;;;;7.90;3.83;;;;;;;9.86;64.37;102965.75;5095496;28;20062;-53
2023/02/28 00:19:41;;;;;;;;;;;;;;;9.99;63.72;102972.69;5100223;28;20088;-52
2023/02/28 00:22:07;;;;;;;10.40;3.90;;;;;;;10.00;63.68;102974.38;5100581;28;19923;-52
2023/02/28 00:24:32;;;;;;;10.83;3.23;;;;;;;9.80;64.05;102970.81;5103122;28;20039;-51
2023/02/28 00:26:58;;;;;;;4.53;3.10;;;;;;;9.80;64.90;102976.16;5097214;28;20357;-49
2023/02/28 00:29:23;;;;;;;9.03;3.17;;;;;;;9.82;64.67;102971.53;5099267;28;20029;-47
2023/02/28 00:31:48;;;;;;;9.43;3.53;;;;;;;9.99;64.39;102964.66;5098085;28;20036;-50
2023/02/28 00:34:14;;;;;;;16.27;6.43;;;;;;;9.95;65.07;102965.94;5088195;28;20078;-51
2023/02/28 00:36:43;;;;;;;8.65;4.05;;;;;;;10.07;64.46;102964.78;5100425;28;20114;-47
2023/02/28 00:39:09;;;;;;;8.63;3.58;;;;;;;10.25;64.17;102972.13;5099430;28;20033;-49
2023/02/28 00:41:34;;;;;;;8.63;4.23;;;;;;;10.29;63.84;102968.19;5079893;28;20071;-49
2023/02/28 00:44:00;;;;;;;9.07;3.73;;;;;;;10.28;63.52;102967.34;5100073;28;20264;-51
2023/02/28 00:46:25;;;;;;;11.25;3.70;;;;;;;10.25;63.92;102961.44;5101916;28;20062;-51
2023/02/28 00:48:51;;;;;;;6.93;3.60;;;;;;;10.27;63.82;102962.13;5097195;28;20037;-48
2023/02/28 00:51:16;;;;;;;7.40;3.50;;;;;;;10.39;63.06;102966.38;5099819;28;20035;-50
2023/02/28 00:53:42;;;;;;;3.72;2.47;;;;;;;10.31;63.51;102959.03;5097262;28;20053;-49
2023/02/28 00:56:07;;;;;;;10.40;3.67;;;;;;;10.41;63.42;102959.06;5100690;28;20032;-51
2023/02/28 00:58:33;;;;;;;10.13;3.25;;;;;;;10.40;63.13;102961.84;5097595;28;20036;-49
2023/02/28 01:00:58;;;;;;;6.20;3.40;;;;;;;10.43;63.05;102962.44;5098477;28;20031;-50
2023/02/28 01:03:24;;;;;;;9.60;3.17;;;;;;;10.51;62.53;102959.06;5118780;28;20088;-54
2023/02/28 01:05:50;;;;;;;7.72;3.53;;;;;;;10.60;62.51;102957.34;5097504;28;20036;-48
2023/02/28 01:08:16;;;;;;;7.20;3.15;;;;;;;10.63;62.39;102965.09;5099481;28;20063;-46
2023/02/28 01:10:42;;;;;;;6.90;3.23;;;;;;;10.64;62.48;102961.44;5094005;28;20087;-48
2023/02/28 01:13:07;;;;;;;9.95;3.92;;;;;;;10.46;62.93;102964.84;5107408;28;20029;-52
2023/02/28 01:15:36;;;;;;;7.53;4.15;;;;;;;10.52;63.01;102962.56;5100023;28;20112;-48
2023/02/28 01:18:01;;;;;;;10.03;3.97;;;;;;;10.48;63.09;102967.34;5097185;28;20035;-51
2023/02/28 01:20:27;;;;;;;7.93;3.63;;;;;;;10.62;63.33;102968.78;5095522;28;20056;-50
2023/02/28 01:22:53;;;;;;;8.65;3.22;;;;;;;10.63;62.80;102965.09;5081097;28;20029;-50
2023/02/28 01:25:18;;;;;;;6.90;3.27;;;;;;;10.67;62.90;102965.63;5063726;28;20100;-49
2023/02/28 01:27:44;;;;;;;9.03;3.83;;;;;;;10.60;63.16;102971.56;5097762;28;20039;-50
2023/02/28 01:30:10;;;;;;;8.93;4.70;;;;;;;10.56;63.22;102970.19;5077956;28;20028;-46
2023/02/28 01:32:36;;;;;;;6.43;3.40;;;;;;;10.65;63.42;102965.81;5101531;28;20032;-49
2023/02/28 01:35:02;;;;;;;7.70;3.90;;;;;;;10.68;63.16;102961.97;5100377;28;20281;-49
2023/02/28 01:37:28;;;;;;;12.27;5.00;;;;;;;10.62;63.47;102968.78;5095620;28;20066;-51
2023/02/28 01:39:54;;;;;;;7.75;3.47;;;;;;;10.57;63.82;102965.66;5096534;28;20261;-49
2023/02/28 01:42:19;;;;;;;9.10;4.23;;;;;;;10.60;63.67;102957.34;5117686;28;20055;-48
2023/02/28 01:44:58;;;;;;;8.38;3.30;;;;;;;10.49;63.81;102968.22;5100039;28;20265;-51
2023/02/28 01:47:28;;;;;;;14.02;4.28;;;;;;;10.47;64.54;102969.19;5082165;28;20029;-50
2023/02/28 01:49:57;;;;;;;7.50;3.70;;;;;;;10.52;64.66;102968.78;5080844;28;20085;-53
2023/02/28 01:52:24;;;;;;;6.00;3.22;;;;;;;10.50;64.73;102969.91;5101163;28;20054;-50
2023/02/28 01:54:56;;;;;;;7.72;3.47;;;;;;;10.52;64.61;102967.91;5098113;28;20028;-47
2023/02/28 01:57:28;;;;;;;7.82;3.63;;;;;;;10.57;64.58;102965.66;5101496;28;20024;-47
2023/02/28 01:59:59;;;;;;;6.43;3.30;;;;;;;10.60;64.64;102957.34;5083043;28;20031;-50
2023/02/28 02:02:27;;;;;;;8.00;3.45;;;;;;;10.60;64.58;102963.53;5079201;28;20036;-48
2023/02/28 02:05:21;;;;;;;6.95;3.80;;;;;;;10.96;63.85;102959.38;5082558;28;20036;-50
2023/02/28 02:07:50;;;;;;;9.30;3.95;;;;;;;10.86;63.92;102954.06;5115694;28;20105;-50
2023/02/28 02:10:19;;;;;;;7.35;3.92;;;;;;;11.16;62.89;102954.81;5101482;28;20059;-49
2023/02/28 02:13:05;;;;;;;9.45;3.15;;;;;;;11.23;62.74;102950.53;5085442;28;20054;-52
2023/02/28 02:15:33;;;;;;;9.23;4.00;;;;;;;11.23;62.58;102947.84;5101895;28;20054;-48
2023/02/28 02:18:12;;;;;;;9.77;3.80;;;;;;;11.06;63.46;102946.81;5099438;28;20052;-51
2023/02/28 02:20:58;;;;;;;10.05;3.85;;;;;;;11.14;63.05;102946.06;5105660;28;20039;-50
2023/02/28 02:23:41;;;;;;;11.27;4.13;;;;;;;11.15;63.10;102953.09;5100431;28;20036;-51
2023/02/28 02:26:26;;;;;;;10.90;4.07;;;;;;;11.25;62.89;102945.88;5101455;28;20158;-52
2023/02/28 02:29:14;;;;;;;7.95;4.03;;;;;;;11.20;62.61;102950.81;5102101;28;20036;-52
2023/02/28 02:31:51;;;;;;;12.15;3.70;;;;;;;11.31;62.58;102947.97;5103753;28;20028;-52
2023/02/28 02:34:23;;;;;;;8.45;4.00;;;;;;;11.31;62.80;102949.78;5104173;28;20061;-50
2023/02/28 02:37:28;;;;;;;9.55;4.13;;;;;;;10.98;63.20;102947.53;5102693;28;20053;-47
2023/02/28 02:40:03;;;;;;;7.10;3.20;;;;;;;10.99;63.39;102948.38;5070605;28;20070;-52
2023/02/28 02:42:56;;;;;;;8.52;4.28;;;;;;;11.19;62.75;102947.31;5101757;28;20040;-51
2023/02/28 02:45:36;;;;;;;9.85;4.70;;;;;;;11.20;62.63;102948.16;5094216;28;20051;-49
2023/02/28 02:48:06;;;;;;;12.82;4.18;;;;;;;11.25;62.45;102953.06;5099707;28;20067;-54
2023/02/28 02:50:39;;;;;;;7.97;4.05;;;;;;;11.34;62.34;102957.53;5083906;28;20059;-47
2023/02/28 02:53:07;;;;;;;9.90;3.80;;;;;;;11.16;62.38;102954.81;5099035;28;20056;-47
2023/02/28 02:55:41;;;;;;;8.27;3.85;;;;;;;11.31;62.50;102950.66;5087503;28;20028;-49
2023/02/28 02:58:20;;;;;;;8.15;4.03;;;;;;;11.30;62.52;102953.47;5083294;28;20070;-49
2023/02/28 03:00:53;;;;;;;8.02;3.47;;;;;;;11.30;62.32;102957.00;5110520;28;20051;-48
2023/02/28 03:03:28;;;;;;;7.88;3.80;;;;;;;11.26;62.06;102960.13;5101257;28;20028;-51
2023/02/28 03:06:00;;;;;;;13.30;4.35;;;;;;;11.26;62.37;102954.75;5099803;28;20107;-48
2023/02/28 03:08:28;;;;;;;11.02;4.45;;;;;;;11.27;62.46;102953.75;5099912;28;20024;-53
2023/02/28 03:11:01;;;;;;;8.90;4.28;;;;;;;11.32;62.05;102951.47;5098916;28;20061;-51
2023/02/28 03:13:44;;;;;;;8.70;4.07;;;;;;;11.26;61.88;102950.22;5116275;28;20039;-48
2023/02/28 03:16:34;;;;;;;8.25;4.93;;;;;;;11.27;62.04;102951.91;5100150;28;20036;-49
2023/02/28 03:19:23;;;;;;;8.23;4.30;;;;;;;11.09;61.97;102957.22;5098039;28;20035;-52
2023/02/28 03:21:57;;;;;;;9.73;4.88;;;;;;;10.83;62.49;102947.16;5085458;28;20040;-47
2023/02/28 03:24:32;;;;;;;7.93;4.32;;;;;;;10.73;63.34;102957.88;5081683;28;20071;-52
2023/02/28 03:27:09;;;;;;;13.45;4.22;;;;;;;10.60;64.23;102957.34;5100860;28;20036;-48
2023/02/28 03:29:41;;;;;;;13.50;4.55;;;;;;;10.61;64.32;102962.56;5101783;28;20048;-51
2023/02/28 03:32:23;;;;;;;10.60;4.93;;;;;;;10.51;64.66;102967.09;5098186;28;20088;-48
2023/02/28 03:35:00;;;;;;;9.57;4.03;;;;;;;10.62;64.62;102958.06;5102875;28;20044;-53
2023/02/28 03:37:29;;;;;;;12.63;5.53;;;;;;;10.57;64.74;102961.16;5097936;28;20032;-49
2023/02/28 03:40:06;;;;;;;10.45;4.28;;;;;;;10.55;65.22;102963.13;5100748;28;20087;-48
2023/02/28 03:42:36;;;;;;;7.45;4.28;;;;;;;10.49;65.88;102963.69;5102828;28;20032;-48
2023/02/28 03:45:11;;;;;;;11.57;4.75;;;;;;;10.45;65.73;102959.63;5112258;28;20039;-51
2023/02/28 03:47:47;;;;;;;9.48;4.38;;;;;;;10.43;66.22;102964.25;5101857;28;20036;-50
2023/02/28 03:50:27;;;;;;;9.48;4.10;;;;;;;10.29;66.76;102969.03;5102049;28;20033;-52
2023/02/28 03:53:00;;;;;;;9.98;4.30;;;;;;;10.33;66.60;102966.91;5106937;28;20055;-49
2023/02/28 03:55:31;;;;;;;13.48;4.90;;;;;;;10.45;66.06;102964.97;5107350;28;20037;-50
2023/02/28 03:58:29;;;;;;;10.27;4.40;;;;;;;10.51;65.67;102960.88;5098480;28;20048;-51
2023/02/28 04:01:07;;;;;;;7.50;4.50;;;;;;;10.45;65.34;102964.97;5087783;28;20040;-55
2023/02/28 04:03:37;;;;;;;10.18;4.30;;;;;;;10.30;65.68;102964.53;5097504;28;20028;-50
2023/02/28 04:06:05;;;;;;;8.98;4.38;;;;;;;10.51;64.96;102956.38;5096310;28;20047;-53
2023/02/28 04:08:31;;;;;;;9.13;4.20;;;;;;;10.47;64.27;102966.53;5099292;28;20033;-53
2023/02/28 04:11:03;;;;;;;8.37;3.93;;;;;;;10.52;63.74;102974.13;5095344;28;20040;-49
2023/02/28 04:13:29;;;;;;;9.20;4.25;;;;;;;10.51;63.58;102971.59;5099469;28;20047;-50
2023/02/28 04:15:54;;;;;;;8.43;3.90;;;;;;;10.45;63.13;102973.84;5103396;28;20067;-50
2023/02/28 04:18:20;;;;;;;8.18;3.88;;;;;;;10.54;63.08;102977.50;5098486;28;20028;-52
2023/02/28 04:20:45;;;;;;;6.73;3.43;;;;;;;10.38;62.83;102974.50;5096315;28;20024;-50
2023/02/28 04:23:11;;;;;;;7.10;4.07;;;;;;;10.49;62.15;102976.22;5096344;28;20047;-53
2023/02/28 04:25:37;;;;;;;11.27;4.13;;;;;;;10.40;61.86;102984.13;5098347;28;20035;-48
2023/02/28 04:28:02;;;;;;;8.37;3.90;;;;;;;10.40;61.29;102978.78;5099608;28;20040;-48
2023/02/28 04:30:29;;;;;;;10.13;3.28;;;;;;;10.24;60.71;102967.78;5096253;28;20056;-48
2023/02/28 04:32:55;;;;;;;8.70;3.60;;;;;;;10.47;60.07;102979.03;5098779;28;20047;-48
2023/02/28 04:35:20;;;;;;;6.10;2.47;;;;;;;10.38;60.23;102977.19;5099652;28;20076;-50
2023/02/28 04:37:46;;;;;;;7.00;2.80;;;;;;;10.14;59.54;102981.13;5093579;28;20039;-48
2023/02/28 04:40:11;;;;;;;6.03;2.83;;;;;;;9.98;59.24;102973.66;5098669;28;20051;-47
2023/02/28 04:42:36;;;;;;;5.97;2.60;;;;;;;10.18;58.66;102979.88;5097712;28;20024;-47
2023/02/28 04:45:03;;;;;;;4.60;2.67;;;;;;;10.24;58.38;102971.28;5099515;28;20029;-50
2023/02/28 04:47:28;;;;;;;;;;;;;;;10.29;57.77;102979.75;5103544;28;20024;-49
2023/02/28 04:49:54;;;;;;;4.83;2.63;;;;;;;10.37;57.27;102981.69;5098909;28;19938;-47
2023/02/28 04:52:19;;;;;;;5.00;2.40;;;;;;;10.45;57.05;102984.53;5099354;28;20043;-47
2023/02/28 04:54:45;;;;;;;8.57;3.50;;;;;;;10.52;57.21;102978.63;5097903;28;20277;-49
2023/02/28 04:57:10;;;;;;;3.93;2.33;;;;;;;10.57;56.47;102982.56;5099158;28;20041;-46
2023/02/28 04:59:36;;;;;;;4.30;2.33;;;;;;;10.64;56.05;102988.19;5098905;28;20052;-49
2023/02/28 05:02:06;;;;;;;7.73;1.93;;;;;;;10.49;56.27;102978.91;5097073;28;20295;-53
2023/02/28 05:04:35;;;;;;;4.40;2.20;;;;;;;10.64;56.07;102977.50;5096631;28;20028;-51
2023/02/28 05:07:01;;;;;;;4.05;2.10;;;;;;;10.67;55.65;102987.91;5094938;28;20025;-47
2023/02/28 05:09:28;;;;;;;4.32;1.85;;;;;;;10.72;55.67;102985.63;5097260;28;20052;-51
2023/02/28 05:11:54;;;;;;;4.72;2.15;;;;;;;10.70;55.68;102986.75;5098271;28;20032;-47
2023/02/28 05:14:20;;;;;;;4.40;2.05;;;;;;;10.65;55.81;102984.53;5094406;28;20040;-50
2023/02/28 05:16:45;;;;;;;4.53;2.10;;;;;;;10.66;55.54;102986.22;5101556;28;20028;-47
2023/02/28 05:19:11;;;;;;;3.78;1.80;;;;;;;10.65;55.75;102989.88;5107732;28;20034;-49
2023/02/28 05:21:48;;;;;;;4.07;2.27;;;;;;;10.60;55.49;102973.38;5097082;28;20056;-49
2023/02/28 05:24:13;;;;;;;7.22;2.00;;;;;;;10.49;55.55;102981.59;5094103;28;20092;-48
2023/02/28 05:26:42;;;;;;;13.83;2.40;;;;;;;10.45;55.81;102975.66;5104604;28;20039;-52
2023/02/28 05:29:09;;;;;;;5.00;1.83;;;;;;;10.57;55.94;102971.84;5095278;28;20091;-49
2023/02/28 05:31:35;;;;;;;6.75;2.13;;;;;;;10.66;55.87;102975.50;5099667;28;20039;-51
2023/02/28 05:34:01;;;;;;;2.72;1.63;;;;;;;10.68;55.82;102968.19;5101790;28;20095;-47
2023/02/28 05:36:27;;;;;;;5.63;1.88;;;;;;;10.69;56.13;102963.66;5100726;28;20049;-51
2023/02/28 05:38:53;;;;;;;7.40;2.13;;;;;;;10.74;56.07;102967.59;5094746;28;20088;-47
2023/02/28 05:41:19;;;;;;;8.90;2.60;;;;;;;10.87;55.79;102971.81;5093536;28;20036;-49
2023/02/28 05:43:46;;;;;;;8.75;3.10;;;;;;;10.68;56.19;102978.88;5098653;28;20292;-54
2023/02/28 05:46:13;;;;;;;6.95;2.42;;;;;;;10.62;56.47;102982.16;5105633;28;20024;-47
2023/02/28 05:48:40;;;;;;;6.13;2.70;;;;;;;10.63;56.53;102978.47;5102022;28;20052;-48
2023/02/28 05:51:06;;;;;;;;;;;;;;;10.47;56.98;102968.34;5104770;28;20062;-49
2023/02/28 05:53:32;;;;;;;8.13;2.50;;;;;;;10.52;57.16;102963.44;5101514;28;19912;-51
2023/02/28 05:55:58;;;;;;;4.45;2.13;;;;;;;10.56;57.06;102970.19;5104492;28;20043;-46
2023/02/28 05:58:25;;;;;;;3.33;2.05;;;;;;;10.56;57.33;102980.00;5104012;28;20043;-48
2023/02/28 06:00:51;;;;;;;7.10;2.58;;;;;;;10.60;57.17;102990.31;5099530;28;20025;-53
2023/02/28 06:03:16;;;;;;;8.93;2.80;;;;;;;10.59;57.25;102985.06;5101551;28;20038;-49
2023/02/28 06:05:42;;;;;;;4.60;2.93;;;;;;;10.53;57.64;102985.66;5104554;28;20031;-46
2023/02/28 06:08:08;;;;;;;5.60;2.93;;;;;;;10.53;57.42;102993.69;5105621;28;20268;-50
2023/02/28 06:10:35;;;;;;;9.00;3.20;;;;;;;10.56;57.55;102990.72;5100668;28;20096;-50
2023/02/28 06:13:02;;;;;;;13.55;3.15;;;;;;;10.56;57.98;102980.88;5100889;28;20025;-53
2023/02/28 06:15:28;;;;;;;5.80;3.17;;;;;;;10.60;58.08;102981.41;5102020;28;20036;-53
2023/02/28 06:17:56;;;;;;;5.63;2.38;;;;;;;10.57;58.03;102976.34;5103092;28;20040;-50
2023/02/28 06:20:22;;;;;;;5.38;2.50;;;;;;;10.52;58.18;102974.13;5104303;28;20040;-48
2023/02/28 06:22:48;;;;;;;7.17;2.40;;;;;;;10.53;58.42;102967.78;5101204;28;20039;-50
2023/02/28 06:25:13;;;;;;;5.30;2.40;;;;;;;10.54;58.31;102976.63;5101836;28;20107;-47
2023/02/28 06:27:39;;;;;;;8.63;3.30;;;;;;;10.49;58.44;102976.22;5101140;28;20284;-49
2023/02/28 06:30:05;;;;;;;16.40;3.23;;;;;;;10.56;58.57;102972.00;5097920;28;20033;-48
2023/02/28 06:32:30;;;;;;;11.88;3.00;;;;;;;10.51;59.13;102971.59;5094384;28;20028;-50
2023/02/28 06:34:57;;;;;;;8.67;3.50;;;;;;;10.76;58.81;102979.00;5096854;28;20063;-50
2023/02/28 06:37:26;;;;;;;;;;;;;;;10.76;58.89;102978.16;5095956;28;20272;-49
2023/02/28 06:39:52;;;;;;;6.40;3.15;;;;;;;10.73;59.09;102991.84;5095022;28;19980;-48
2023/02/28 06:42:18;;;;;;;3.58;2.13;;;;;;;10.72;58.85;102993.66;5098630;28;20096;-49
2023/02/28 06:44:43;;;;;;;6.30;2.70;;;;;;;10.65;58.84;102986.34;5095296;28;20267;-50
2023/02/28 06:47:08;;;;;;;7.53;3.07;;;;;;;10.64;58.75;102993.53;5098729;28;20040;-49
2023/02/28 06:49:35;;;;;;;5.93;2.57;;;;;;;10.64;59.01;102998.03;5097598;28;20044;-48
2023/02/28 06:52:02;;;;;;;4.85;2.47;;;;;;;10.55;59.29;102997.06;5095998;28;20028;-46
2023/02/28 06:54:27;;;;;;;7.47;2.53;;;;;;;10.63;59.24;102993.69;5100405;28;20039;-50
2023/02/28 06:56:54;;;;;;;6.30;2.50;;;;;;;10.56;59.39;102999.59;5075825;28;20028;-51
2023/02/28 06:59:20;;;;;;;8.48;2.58;;;;;;;10.52;59.28;103005.38;5101642;28;20050;-51
2023/02/28 07:01:46;;;;;;;4.82;2.85;;;;;;;10.55;59.10;103005.94;5098456;28;20064;-49
2023/02/28 07:04:12;;;;;;;6.70;2.37;;;;;;;10.55;59.15;103000.59;5081102;28;20067;-55
2023/02/28 07:06:38;;;;;;;7.25;3.33;;;;;;;10.57;59.26;103000.44;5096506;28;20080;-46
2023/02/28 07:09:04;;;;;;;5.90;3.53;;;;;;;10.45;59.60;103000.59;5095205;28;20062;-52
2023/02/28 07:11:31;;;;;;;6.28;3.20;;;;;;;10.59;59.07;103004.66;5097682;28;20056;-53
2023/02/28 07:13:57;;;;;;;10.05;2.75;;;;;;;10.57;59.32;103008.47;5096084;28;20024;-52
2023/02/28 07:16:24;;;;;;;6.00;2.80;;;;;;;10.66;59.39;103017.47;5099769;28;20039;-48
2023/02/28 07:18:52;;;;;;;3.85;2.35;;;;;;;10.74;59.50;103020.28;5097067;28;20024;-51
2023/02/28 07:21:17;;;;;;;7.05;3.20;;;;;;;10.78;60.12;103016.34;5099184;28;20056;-52
2023/02/28 07:23:43;;;;;;;11.83;3.30;;;;;;;10.78;60.24;103015.47;5102210;28;20035;-53
2023/02/28 07:26:15;;;;;;;5.07;2.60;;;;;;;10.84;60.17;103025.59;5100176;28;20038;-53
2023/02/28 07:28:42;;;;;;;3.30;2.40;;;;;;;10.69;59.68;103028.75;5100196;28;20044;-51
2023/02/28 07:31:08;;;;;;;7.18;2.78;;;;;;;11.01;58.90;103024.88;5102089;28;20119;-53
2023/02/28 07:33:34;;;;;;;5.18;2.58;;;;;;;11.20;58.08;103023.13;5094903;28;20028;-49
2023/02/28 07:36:02;;;;;;;5.88;2.60;;;;;;;11.31;58.06;103028.34;5097212;28;20044;-53
2023/02/28 07:38:27;;;;;;;5.03;3.20;;;;;;;11.01;58.00;103022.19;5100568;28;20105;-53
2023/02/28 07:40:53;;;;;;;9.33;3.10;;;;;;;11.42;58.05;103032.66;5100670;28;20028;-53
2023/02/28 07:43:18;;;;;;;13.57;3.23;;;;;;;11.06;57.51;103032.47;5096967;28;20039;-50
2023/02/28 07:45:43;;;;;;;5.67;2.63;;;;;;;11.23;57.05;103036.25;5097327;28;20086;-51
2023/02/28 07:48:09;;;;;;;8.07;2.67;;;;;;;11.14;55.53;103042.47;5099998;28;20054;-51
2023/02/28 07:50:35;;;;;;;9.88;2.05;;;;;;;10.89;54.68;103034.91;5100765;28;20036;-51
2023/02/28 07:53:01;;;;;;;3.83;1.80;;;;;;;11.12;54.18;103039.94;5100181;28;20043;-53
2023/02/28 07:55:26;;;;;;;5.75;2.47;;;;;;;11.05;54.70;103044.19;5094848;28;20063;-50
2023/02/28 07:57:51;;;;;;;4.37;2.17;;;;;;;10.93;54.73;103038.16;5104078;28;20060;-50
2023/02/28 08:00:17;;;;;;;3.13;2.23;;;;;;;11.05;54.51;103039.66;5097593;28;20273;-47
2023/02/28 08:02:42;;;;;;;5.38;2.13;;;;;;;10.96;53.41;103045.88;5095630;28;20103;-51
2023/02/28 08:05:08;;;;;;;5.60;2.87;;;;;;;11.42;52.66;103039.84;5100797;28;20054;-47
2023/02/28 08:07:33;;;;;;;4.57;1.83;;;;;;;11.52;51.37;103037.97;5097572;28;20131;-49
2023/02/28 08:09:59;;;;;;;3.33;2.27;;;;;;;11.59;50.22;103047.13;5097011;28;20044;-50
2023/02/28 08:12:25;;;;;;;6.78;2.13;;;;;;;11.83;50.40;103039.50;5097107;28;20037;-51
2023/02/28 08:14:50;;;;;;;6.10;2.10;;;;;;;11.73;49.81;103048.44;5099784;28;20037;-51
2023/02/28 08:17:16;;;;;;;5.70;1.88;;;;;;;11.89;49.04;103050.47;5094501;28;20326;-50
2023/02/28 08:19:42;;;;;;;5.17;2.00;;;;;;;12.15;48.98;103052.47;5096225;28;20032;-49
2023/02/28 08:22:07;;;;;;;4.32;2.10;;;;;;;12.11;48.59;103045.72;5094341;28;20036;-47
2023/02/28 08:24:33;;;;;;;3.83;1.80;;;;;;;12.14;48.13;103048.09;5100692;28;20060;-49
2023/02/28 08:26:58;;;;;;;5.33;2.27;;;;;;;12.41;47.11;103051.72;5099486;28;20265;-52
2023/02/28 08:29:24;;;;;;;5.70;2.10;;;;;;;12.70;47.40;103050.66;5098507;28;20040;-49
2023/02/28 08:31:49;;;;;;;5.37;2.17;;;;;;;12.88;47.11;103052.44;5097948;28;20032;-49
2023/02/28 08:34:16;;;;;;;2.87;1.80;;;;;;;12.43;44.58;103059.63;5098638;28;20036;-55
2023/02/28 08:36:44;;;;;;;4.07;1.83;;;;;;;12.44;44.89;103056.75;5098938;28;20052;-49
2023/02/28 08:39:10;;;;;;;3.40;1.73;;;;;;;12.57;43.17;103063.59;5096858;28;20052;-49
2023/02/28 08:41:36;;;;;;;4.63;1.90;;;;;;;12.18;42.40;103065.56;5097064;28;20048;-51
2023/02/28 08:44:01;;;;;;;8.90;2.20;;;;;;;12.45;42.16;103054.94;5097243;28;20088;-48
2023/02/28 08:46:27;;;;;;;5.93;1.70;;;;;;;12.37;41.68;103044.16;5093172;28;20051;-49
2023/02/28 08:48:59;;;;;;;5.43;1.90;;;;;;;12.53;41.90;103048.81;5095560;28;20056;-49
2023/02/28 08:51:26;;;;;;;4.63;2.10;;;;;;;12.70;41.75;103056.00;5095948;28;20028;-49
2023/02/28 08:54:00;;;;;;;3.50;1.90;;;;;;;12.74;41.10;103053.84;5094835;28;20041;-51
2023/02/28 08:56:27;;;;;;;3.92;1.85;;;;;;;12.74;40.70;103043.97;5097820;28;20044;-51
2023/02/28 08:58:55;;;;;;;7.65;1.60;;;;;;;12.40;40.80;103043.84;5099688;28;20074;-48
2023/02/28 09:01:29;;;;;;;4.13;2.00;;;;;;;12.60;41.30;103040.00;5096752;28;20050;-51
2023/02/28 09:03:56;;;;;;;4.20;1.80;;;;;;;12.80;40.38;103053.25;5096969;28;20040;-52
2023/02/28 09:06:25;;;;;;;2.78;1.80;;;;;;;12.80;39.63;103055.94;5098079;28;20040;-51
2023/02/28 09:08:51;;;;;;;3.55;1.77;;;;;;;12.75;38.30;103050.16;5094741;28;20032;-48
2023/02/28 09:11:18;;;;;;;4.10;1.90;;;;;;;14.15;37.84;103046.50;5097710;28;20104;-49
2023/02/28 09:13:46;;;;;;;5.30;1.55;;;;;;;15.32;35.84;103054.41;5099660;28;20050;-51
2023/02/28 09:16:14;;;;;;;5.25;1.83;;;;;;;16.17;34.41;103054.72;5100076;28;20039;-49
2023/02/28 09:18:40;;;;;;;7.95;2.25;;;;;;;16.42;33.08;103057.25;5102502;28;20040;-55
2023/02/28 09:21:13;;;;;;;3.30;1.92;;;;;;;17.70;32.55;103061.03;5098429;28;20028;-53
2023/02/28 09:23:38;;;;;;;3.63;1.90;;;;;;;18.13;31.74;103058.44;5092182;28;20040;-50
2023/02/28 09:26:04;;;;;;;2.57;1.67;;;;;;;18.52;31.03;103069.84;5096299;28;20286;-50
2023/02/28 09:28:30;;;;;;;4.60;1.73;;;;;;;18.20;30.34;103070.16;5098183;28;20039;-54
2023/02/28 09:30:59;;;;;;;4.82;1.50;;;;;;;18.65;30.40;103074.56;5097899;28;20036;-53
2023/02/28 09:33:25;;;;;;;5.33;1.80;;;;;;;18.70;29.38;103073.97;5095725;28;20052;-53
2023/02/28 09:36:00;;;;;;;1.95;1.48;;;;;;;19.62;27.85;103077.53;5098388;28;20281;-52
2023/02/28 09:38:27;;;;;;;2.17;1.50;;;;;;;19.54;27.33;103079.56;5099135;28;20066;-51
2023/02/28 09:40:59;;;;;;;5.93;1.93;;;;;;;19.29;27.87;103077.34;5096472;28;20268;-54
2023/02/28 09:43:37;;;;;;;8.87;1.90;;;;;;;19.69;27.29;103077.53;5097718;28;20269;-52
2023/02/28 09:46:33;;;;;;;1.90;1.60;;;;;;;20.51;26.89;103081.31;5094672;28;20273;-51
2023/02/28 09:49:04;;;;;;;5.80;1.60;;;;;;;20.17;26.29;103084.84;5098162;28;20285;-54
2023/02/28 09:51:34;;;;;;;2.13;1.50;;;;;;;20.78;25.95;103079.44;5098138;28;20265;-54
2023/02/28 09:53:59;;;;;;;7.53;1.47;;;;;;;20.76;25.63;103082.38;5099324;28;20332;-54
2023/02/28 09:56:31;;;;;;;3.85;1.80;;;;;;;21.22;25.11;103074.41;5094720;28;20045;-50
2023/02/28 09:59:09;;;;;;;8.00;1.80;;;;;;;21.89;24.83;103079.59;5097555;28;20040;-48
2023/02/28 10:02:23;;;;;;;2.17;1.47;;;;;;;22.12;23.88;103082.84;5095244;28;20035;-51
2023/02/28 10:04:59;;;;;;;6.87;1.80;;;;;;;22.39;24.09;103072.59;5035003;28;20037;-52
2023/02/28 10:07:30;;;;;;;3.57;1.90;;;;;;;22.28;23.59;103068.69;5093894;28;20047;-52
2023/02/28 10:10:02;;;;;;;2.27;1.50;;;;;;;22.83;23.25;103069.09;5095376;28;20033;-52
2023/02/28 10:12:29;;;;;;;3.57;1.87;;;;;;;22.27;23.42;103072.47;5095098;28;20041;-53
2023/02/28 10:14:58;;;;;;;3.60;1.50;;;;;;;23.04;23.13;103076.88;5093725;28;20046;-52
2023/02/28 10:17:30;;;;;;;2.67;1.50;;;;;;;23.79;22.85;103071.41;5095170;28;20036;-52
2023/02/28 10:20:07;;;;;;;2.47;1.40;;;;;;;23.68;21.83;103067.56;5099720;28;20044;-52
2023/02/28 10:23:07;;;;;;;2.70;1.37;;;;;;;23.62;22.38;103077.50;5094182;28;20035;-53
2023/02/28 10:25:35;;;;;;;3.10;1.40;;;;;;;24.23;22.28;103073.16;5097326;28;20028;-51
2023/02/28 10:28:10;;;;;;;4.60;1.60;;;;;;;24.51;21.94;103068.91;5098176;28;20083;-55
2023/02/28 10:30:40;;;;;;;3.77;1.57;;;;;;;24.26;22.39;103061.75;5097688;28;20033;-53
2023/02/28 10:33:05;;;;;;;4.10;1.40;;;;;;;23.43;22.83;103064.94;5101492;28;20100;-50
2023/02/28 10:35:33;;;;;;;4.70;1.67;;;;;;;23.23;22.57;103062.41;5099020;28;20048;-50
2023/02/28 10:38:09;;;;;;;8.20;1.77;;;;;;;24.39;22.36;103068.88;5099129;28;20036;-50
2023/02/28 10:40:35;;;;;;;3.07;1.73;;;;;;;24.69;22.17;103066.06;5096947;28;20054;-48
2023/02/28 10:43:02;;;;;;;;;;;;;;;24.91;22.55;103068.22;5102852;28;20032;-51
2023/02/28 10:45:36;;;;;;;2.38;1.60;;;;;;;24.20;22.01;103067.06;5099796;28;19920;-49
2023/02/28 10:48:14;;;;;;;2.93;1.50;;;;;;;24.43;21.90;103065.44;5101196;28;20040;-52
2023/02/28 10:50:52;;;;;;;3.63;1.20;;;;;;;24.25;21.80;103069.09;5102598;28;20046;-53
2023/02/28 10:53:26;;;;;;;5.83;1.60;;;;;;;25.20;21.18;103071.88;5096522;28;20140;-52
2023/02/28 10:56:09;;;;;;;7.60;1.77;;;;;;;25.17;21.79;103060.59;5101449;28;20032;-51
2023/02/28 10:58:55;;;;;;;3.13;1.43;;;;;;;25.95;21.62;103060.22;5096593;28;20052;-51
2023/02/28 11:01:23;;;;;;;6.27;1.50;;;;;;;25.90;21.57;103057.38;5097694;28;20039;-53
2023/02/28 11:03:50;;;;;;;3.67;1.50;;;;;;;25.54;22.28;103054.78;5082131;28;20047;-50
2023/02/28 11:06:20;;;;;;;4.47;1.20;;;;;;;25.01;21.89;103049.31;5094953;28;20028;-50
2023/02/28 11:08:51;;;;;;;3.50;1.73;;;;;;;25.78;21.55;103049.22;5104024;28;20095;-53
2023/02/28 11:11:17;;;;;;;4.40;2.50;;;;;;;26.32;20.57;103042.50;5096807;28;20124;-52
2023/02/28 11:13:44;;;;;;;3.72;1.92;;;;;;;26.40;20.18;103047.56;5102478;28;20064;-50
2023/02/28 11:16:13;;;;;;;2.57;1.30;;;;;;;26.53;20.91;103040.91;5096107;28;20040;-54
2023/02/28 11:18:49;;;;;;;2.67;1.40;;;;;;;26.42;20.68;103042.66;5101362;28;20058;-53
2023/02/28 11:21:28;;;;;;;2.40;1.30;;;;;;;26.63;20.51;103048.47;5102208;28;20032;-52
2023/02/28 11:24:04;;;;;;;4.53;2.20;;;;;;;27.36;19.59;103050.28;5096528;28;20040;-52
2023/02/28 11:26:48;;;;;;;7.07;2.30;;;;;;;27.67;19.20;103044.31;5099310;28;20039;-52
2023/02/28 11:29:21;;;;;;;3.83;1.67;;;;;;;28.16;20.05;103041.53;5100832;28;20291;-50
2023/02/28 11:32:08;;;;;;;4.87;1.30;;;;;;;28.58;19.18;103044.56;5101582;28;20028;-53
2023/02/28 11:34:35;;;;;;;;;;;;;;;28.82;19.04;103042.25;5101626;28;20028;-52
2023/02/28 11:37:04;;;;;;;;;;;;;;;29.45;18.39;103046.13;5099379;28;19916;-50